sensor_id;sensor_type;location;lat;lon;timestamp;temperature;humidity
18225;DHT22;9237;48.590;8.854;2022-07-29T00:00:06;16.80;99.90
18225;DHT22;9237;48.590;8.854;2022-07-29T00:02:34;16.70;99.90
18225;DHT22;9237;48.590;8.854;2022-07-29T00:05:01;16.70;99.90
18225;DHT22;9237;48.590;8.854;2022-07-29T00:07:28;16.70;99.90
18225;DHT22;9237;48.590;8.854;2022-07-29T00:09:55;16.60;99.90
18225;DHT22;9237;48.590;8.854;2022-07-29T00:12:23;16.60;99.90
18225;DHT22;9237;48.590;8.854;2022-07-29T00:14:52;16.50;99.90
18225;DHT22;9237;48.590;8.854;2022-07-29T00:17:19;16.50;99.90
18225;DHT22;9237;48.590;8.854;2022-07-29T00:19:46;16.40;99.90
18225;DHT22;9237;48.590;8.854;2022-07-29T00:22:13;16.30;99.90
18225;DHT22;9237;48.590;8.854;2022-07-29T00:24:40;16.30;99.90
18225;DHT22;9237;48.590;8.854;2022-07-29T00:27:07;16.30;99.90
18225;DHT22;9237;48.590;8.854;2022-07-29T00:29:33;16.30;99.90
18225;DHT22;9237;48.590;8.854;2022-07-29T00:32:02;16.30;99.90
18225;DHT22;9237;48.590;8.854;2022-07-29T00:34:30;16.20;99.90
18225;DHT22;9237;48.590;8.854;2022-07-29T00:37:14;16.10;99.90
18225;DHT22;9237;48.590;8.854;2022-07-29T00:39:41;16.10;99.90
18225;DHT22;9237;48.590;8.854;2022-07-29T00:42:08;16.00;99.90
18225;DHT22;9237;48.590;8.854;2022-07-29T00:44:37;16.00;99.90
18225;DHT22;9237;48.590;8.854;2022-07-29T00:47:05;15.90;99.90
18225;DHT22;9237;48.590;8.854;2022-07-29T00:49:33;15.90;99.90
18225;DHT22;9237;48.590;8.854;2022-07-29T00:52:00;15.90;99.90
18225;DHT22;9237;48.590;8.854;2022-07-29T00:54:28;15.90;99.90
18225;DHT22;9237;48.590;8.854;2022-07-29T00:56:56;15.80;99.90
18225;DHT22;9237;48.590;8.854;2022-07-29T00:59:23;15.90;99.90
18225;DHT22;9237;48.590;8.854;2022-07-29T01:01:51;15.70;99.90
18225;DHT22;9237;48.590;8.854;2022-07-29T01:04:19;15.70;99.90
18225;DHT22;9237;48.590;8.854;2022-07-29T01:06:47;15.60;99.90
18225;DHT22;9237;48.590;8.854;2022-07-29T01:09:14;15.60;99.90
18225;DHT22;9237;48.590;8.854;2022-07-29T01:11:42;15.60;99.90
18225;DHT22;9237;48.590;8.854;2022-07-29T01:14:10;15.60;99.90
18225;DHT22;9237;48.590;8.854;2022-07-29T01:16:42;15.60;99.90
18225;DHT22;9237;48.590;8.854;2022-07-29T01:19:38;15.60;99.90
18225;DHT22;9237;48.590;8.854;2022-07-29T01:22:25;15.60;99.90
18225;DHT22;9237;48.590;8.854;2022-07-29T01:25:05;15.60;99.90
18225;DHT22;9237;48.590;8.854;2022-07-29T01:27:48;15.60;99.90
18225;DHT22;9237;48.590;8.854;2022-07-29T01:30:21;15.50;99.90
18225;DHT22;9237;48.590;8.854;2022-07-29T01:32:53;15.50;99.90
18225;DHT22;9237;48.590;8.854;2022-07-29T01:35:25;15.50;99.90
18225;DHT22;9237;48.590;8.854;2022-07-29T01:37:57;15.40;99.90
18225;DHT22;9237;48.590;8.854;2022-07-29T01:40:28;15.40;99.90
18225;DHT22;9237;48.590;8.854;2022-07-29T01:42:58;15.40;99.90
18225;DHT22;9237;48.590;8.854;2022-07-29T01:45:33;15.40;99.90
18225;DHT22;9237;48.590;8.854;2022-07-29T01:48:06;15.40;99.90
18225;DHT22;9237;48.590;8.854;2022-07-29T01:50:42;15.30;99.90
18225;DHT22;9237;48.590;8.854;2022-07-29T01:53:10;15.30;99.90
18225;DHT22;9237;48.590;8.854;2022-07-29T01:55:41;15.40;99.90
18225;DHT22;9237;48.590;8.854;2022-07-29T01:58:11;15.40;99.90
18225;DHT22;9237;48.590;8.854;2022-07-29T02:00:40;15.40;99.90
18225;DHT22;9237;48.590;8.854;2022-07-29T02:03:11;15.50;99.90
18225;DHT22;9237;48.590;8.854;2022-07-29T02:05:39;15.40;99.90
18225;DHT22;9237;48.590;8.854;2022-07-29T02:08:07;15.50;99.90
18225;DHT22;9237;48.590;8.854;2022-07-29T02:10:35;15.40;99.90
18225;DHT22;9237;48.590;8.854;2022-07-29T02:13:03;15.40;99.90
18225;DHT22;9237;48.590;8.854;2022-07-29T02:15:33;15.30;99.90
18225;DHT22;9237;48.590;8.854;2022-07-29T02:18:06;15.20;99.90
18225;DHT22;9237;48.590;8.854;2022-07-29T02:20:34;15.30;99.90
18225;DHT22;9237;48.590;8.854;2022-07-29T02:23:02;15.20;99.90
18225;DHT22;9237;48.590;8.854;2022-07-29T02:25:30;15.20;99.90
18225;DHT22;9237;48.590;8.854;2022-07-29T02:27:59;15.20;99.90
18225;DHT22;9237;48.590;8.854;2022-07-29T02:30:27;15.20;99.90
18225;DHT22;9237;48.590;8.854;2022-07-29T02:32:56;15.20;99.90
18225;DHT22;9237;48.590;8.854;2022-07-29T02:35:25;15.30;99.90
18225;DHT22;9237;48.590;8.854;2022-07-29T02:37:52;15.20;99.90
18225;DHT22;9237;48.590;8.854;2022-07-29T02:40:35;15.20;99.90
18225;DHT22;9237;48.590;8.854;2022-07-29T02:43:05;15.20;99.90
18225;DHT22;9237;48.590;8.854;2022-07-29T02:45:33;15.10;99.90
18225;DHT22;9237;48.590;8.854;2022-07-29T02:48:05;15.00;99.90
18225;DHT22;9237;48.590;8.854;2022-07-29T02:50:37;15.00;99.90
18225;DHT22;9237;48.590;8.854;2022-07-29T02:53:08;15.00;99.90
18225;DHT22;9237;48.590;8.854;2022-07-29T02:55:39;15.10;99.90
18225;DHT22;9237;48.590;8.854;2022-07-29T02:58:13;15.10;99.90
18225;DHT22;9237;48.590;8.854;2022-07-29T03:00:40;15.00;99.90
18225;DHT22;9237;48.590;8.854;2022-07-29T03:03:12;15.00;99.90
18225;DHT22;9237;48.590;8.854;2022-07-29T03:05:41;14.90;99.90
18225;DHT22;9237;48.590;8.854;2022-07-29T03:08:10;15.10;99.90
18225;DHT22;9237;48.590;8.854;2022-07-29T03:10:39;14.90;99.90
18225;DHT22;9237;48.590;8.854;2022-07-29T03:13:07;14.90;99.90
18225;DHT22;9237;48.590;8.854;2022-07-29T03:15:35;14.90;99.90
18225;DHT22;9237;48.590;8.854;2022-07-29T03:18:02;14.90;99.90
18225;DHT22;9237;48.590;8.854;2022-07-29T03:20:30;14.80;99.90
18225;DHT22;9237;48.590;8.854;2022-07-29T03:22:58;14.70;99.90
18225;DHT22;9237;48.590;8.854;2022-07-29T03:25:25;14.70;99.90
18225;DHT22;9237;48.590;8.854;2022-07-29T03:27:52;14.60;99.90
18225;DHT22;9237;48.590;8.854;2022-07-29T03:30:19;14.60;99.90
18225;DHT22;9237;48.590;8.854;2022-07-29T03:32:46;14.60;99.90
18225;DHT22;9237;48.590;8.854;2022-07-29T03:35:13;14.60;99.90
18225;DHT22;9237;48.590;8.854;2022-07-29T03:37:41;14.70;99.90
18225;DHT22;9237;48.590;8.854;2022-07-29T03:40:11;14.60;99.90
18225;DHT22;9237;48.590;8.854;2022-07-29T03:42:41;14.70;99.90
18225;DHT22;9237;48.590;8.854;2022-07-29T03:45:12;14.60;99.90
18225;DHT22;9237;48.590;8.854;2022-07-29T03:47:50;14.60;99.90
18225;DHT22;9237;48.590;8.854;2022-07-29T03:50:20;14.60;99.90
18225;DHT22;9237;48.590;8.854;2022-07-29T03:52:48;14.50;99.90
18225;DHT22;9237;48.590;8.854;2022-07-29T03:55:17;14.60;99.90
18225;DHT22;9237;48.590;8.854;2022-07-29T03:57:45;14.50;99.90
18225;DHT22;9237;48.590;8.854;2022-07-29T04:00:13;14.60;99.90
18225;DHT22;9237;48.590;8.854;2022-07-29T04:02:42;14.50;99.90
18225;DHT22;9237;48.590;8.854;2022-07-29T04:05:14;14.60;99.90
18225;DHT22;9237;48.590;8.854;2022-07-29T04:07:43;14.60;99.90
18225;DHT22;9237;48.590;8.854;2022-07-29T04:10:11;14.50;99.90
18225;DHT22;9237;48.590;8.854;2022-07-29T04:12:39;14.50;99.90
18225;DHT22;9237;48.590;8.854;2022-07-29T04:15:07;14.40;99.90
18225;DHT22;9237;48.590;8.854;2022-07-29T04:17:34;14.50;99.90
18225;DHT22;9237;48.590;8.854;2022-07-29T04:20:01;14.60;99.90
18225;DHT22;9237;48.590;8.854;2022-07-29T04:22:28;14.80;99.90
18225;DHT22;9237;48.590;8.854;2022-07-29T04:24:54;14.70;99.90
18225;DHT22;9237;48.590;8.854;2022-07-29T04:27:21;14.70;99.90
18225;DHT22;9237;48.590;8.854;2022-07-29T04:29:50;14.70;99.90
18225;DHT22;9237;48.590;8.854;2022-07-29T04:32:17;14.70;99.90
18225;DHT22;9237;48.590;8.854;2022-07-29T04:34:43;14.70;99.90
18225;DHT22;9237;48.590;8.854;2022-07-29T04:37:12;14.80;99.90
18225;DHT22;9237;48.590;8.854;2022-07-29T04:39:39;14.90;99.90
18225;DHT22;9237;48.590;8.854;2022-07-29T04:42:06;15.00;99.90
18225;DHT22;9237;48.590;8.854;2022-07-29T04:44:33;15.00;99.90
18225;DHT22;9237;48.590;8.854;2022-07-29T04:47:01;15.10;99.90
18225;DHT22;9237;48.590;8.854;2022-07-29T04:49:28;15.20;99.90
18225;DHT22;9237;48.590;8.854;2022-07-29T04:51:54;15.30;99.90
18225;DHT22;9237;48.590;8.854;2022-07-29T04:54:21;15.40;99.90
18225;DHT22;9237;48.590;8.854;2022-07-29T04:56:48;15.50;99.90
18225;DHT22;9237;48.590;8.854;2022-07-29T04:59:15;15.60;99.90
18225;DHT22;9237;48.590;8.854;2022-07-29T05:01:42;15.80;99.90
18225;DHT22;9237;48.590;8.854;2022-07-29T05:04:11;16.00;99.90
18225;DHT22;9237;48.590;8.854;2022-07-29T05:06:37;16.10;99.90
18225;DHT22;9237;48.590;8.854;2022-07-29T05:09:04;16.20;99.90
18225;DHT22;9237;48.590;8.854;2022-07-29T05:11:31;16.30;99.90
18225;DHT22;9237;48.590;8.854;2022-07-29T05:13:58;16.50;99.90
18225;DHT22;9237;48.590;8.854;2022-07-29T05:16:25;16.60;99.90
18225;DHT22;9237;48.590;8.854;2022-07-29T05:18:52;16.70;99.90
18225;DHT22;9237;48.590;8.854;2022-07-29T05:21:20;16.80;99.90
18225;DHT22;9237;48.590;8.854;2022-07-29T05:23:47;16.80;99.90
18225;DHT22;9237;48.590;8.854;2022-07-29T05:26:14;16.90;99.90
18225;DHT22;9237;48.590;8.854;2022-07-29T05:28:41;17.00;99.90
18225;DHT22;9237;48.590;8.854;2022-07-29T05:31:07;17.20;99.90
18225;DHT22;9237;48.590;8.854;2022-07-29T05:33:35;17.50;99.90
18225;DHT22;9237;48.590;8.854;2022-07-29T05:36:02;17.60;99.90
18225;DHT22;9237;48.590;8.854;2022-07-29T05:38:32;17.50;99.90
18225;DHT22;9237;48.590;8.854;2022-07-29T05:40:59;17.60;99.90
18225;DHT22;9237;48.590;8.854;2022-07-29T05:43:26;17.90;99.90
18225;DHT22;9237;48.590;8.854;2022-07-29T05:45:53;18.30;99.90
18225;DHT22;9237;48.590;8.854;2022-07-29T05:48:20;18.50;99.90
18225;DHT22;9237;48.590;8.854;2022-07-29T05:50:47;18.70;99.90
18225;DHT22;9237;48.590;8.854;2022-07-29T05:53:14;18.90;99.90
18225;DHT22;9237;48.590;8.854;2022-07-29T05:55:43;19.10;99.90
18225;DHT22;9237;48.590;8.854;2022-07-29T05:58:09;19.00;99.90
18225;DHT22;9237;48.590;8.854;2022-07-29T06:00:37;19.10;99.90
18225;DHT22;9237;48.590;8.854;2022-07-29T06:03:05;19.50;99.90
18225;DHT22;9237;48.590;8.854;2022-07-29T06:05:32;19.90;99.90
18225;DHT22;9237;48.590;8.854;2022-07-29T06:07:59;20.30;99.90
18225;DHT22;9237;48.590;8.854;2022-07-29T06:10:26;20.70;99.90
18225;DHT22;9237;48.590;8.854;2022-07-29T06:12:54;21.10;99.90
18225;DHT22;9237;48.590;8.854;2022-07-29T06:15:21;21.30;99.90
18225;DHT22;9237;48.590;8.854;2022-07-29T06:17:48;21.40;99.90
18225;DHT22;9237;48.590;8.854;2022-07-29T06:20:15;21.50;99.90
18225;DHT22;9237;48.590;8.854;2022-07-29T06:22:42;21.50;99.90
18225;DHT22;9237;48.590;8.854;2022-07-29T06:25:09;21.80;99.90
18225;DHT22;9237;48.590;8.854;2022-07-29T06:27:37;21.80;99.90
18225;DHT22;9237;48.590;8.854;2022-07-29T06:30:06;21.80;99.90
18225;DHT22;9237;48.590;8.854;2022-07-29T06:32:34;21.80;99.90
18225;DHT22;9237;48.590;8.854;2022-07-29T06:35:02;22.00;99.90
18225;DHT22;9237;48.590;8.854;2022-07-29T06:37:29;21.90;99.90
18225;DHT22;9237;48.590;8.854;2022-07-29T06:39:55;21.60;99.90
18225;DHT22;9237;48.590;8.854;2022-07-29T06:42:36;21.40;99.90
18225;DHT22;9237;48.590;8.854;2022-07-29T06:45:05;21.20;99.90
18225;DHT22;9237;48.590;8.854;2022-07-29T06:47:32;21.10;99.90
18225;DHT22;9237;48.590;8.854;2022-07-29T06:49:59;21.00;99.90
18225;DHT22;9237;48.590;8.854;2022-07-29T06:52:26;21.20;99.90
18225;DHT22;9237;48.590;8.854;2022-07-29T06:54:53;21.50;99.90
18225;DHT22;9237;48.590;8.854;2022-07-29T06:57:20;21.90;99.90
18225;DHT22;9237;48.590;8.854;2022-07-29T06:59:47;22.10;99.90
18225;DHT22;9237;48.590;8.854;2022-07-29T07:02:15;22.40;99.90
18225;DHT22;9237;48.590;8.854;2022-07-29T07:04:42;22.30;99.90
18225;DHT22;9237;48.590;8.854;2022-07-29T07:07:09;22.10;99.90
18225;DHT22;9237;48.590;8.854;2022-07-29T07:09:36;21.90;99.90
18225;DHT22;9237;48.590;8.854;2022-07-29T07:12:03;22.00;99.90
18225;DHT22;9237;48.590;8.854;2022-07-29T07:14:30;21.80;99.90
18225;DHT22;9237;48.590;8.854;2022-07-29T07:16:58;22.00;99.90
18225;DHT22;9237;48.590;8.854;2022-07-29T07:19:27;22.10;99.90
18225;DHT22;9237;48.590;8.854;2022-07-29T07:21:54;22.60;99.90
18225;DHT22;9237;48.590;8.854;2022-07-29T07:24:21;23.30;99.90
18225;DHT22;9237;48.590;8.854;2022-07-29T07:26:47;24.00;99.90
18225;DHT22;9237;48.590;8.854;2022-07-29T07:29:14;24.40;99.90
18225;DHT22;9237;48.590;8.854;2022-07-29T07:31:41;23.90;99.90
18225;DHT22;9237;48.590;8.854;2022-07-29T07:34:08;23.60;99.90
18225;DHT22;9237;48.590;8.854;2022-07-29T07:36:36;23.50;99.90
18225;DHT22;9237;48.590;8.854;2022-07-29T07:39:04;24.00;99.90
18225;DHT22;9237;48.590;8.854;2022-07-29T07:41:31;24.30;99.90
18225;DHT22;9237;48.590;8.854;2022-07-29T07:43:58;24.60;99.90
18225;DHT22;9237;48.590;8.854;2022-07-29T07:46:25;24.70;99.90
18225;DHT22;9237;48.590;8.854;2022-07-29T07:48:52;25.20;99.90
18225;DHT22;9237;48.590;8.854;2022-07-29T07:51:19;24.90;99.90
18225;DHT22;9237;48.590;8.854;2022-07-29T07:53:47;24.60;99.90
18225;DHT22;9237;48.590;8.854;2022-07-29T07:56:15;24.50;99.90
18225;DHT22;9237;48.590;8.854;2022-07-29T07:58:42;24.70;99.90
18225;DHT22;9237;48.590;8.854;2022-07-29T08:01:09;24.90;99.90
18225;DHT22;9237;48.590;8.854;2022-07-29T08:03:36;24.90;99.90
18225;DHT22;9237;48.590;8.854;2022-07-29T08:06:04;25.30;99.90
18225;DHT22;9237;48.590;8.854;2022-07-29T08:08:31;25.40;99.90
18225;DHT22;9237;48.590;8.854;2022-07-29T08:11:00;25.00;99.90
18225;DHT22;9237;48.590;8.854;2022-07-29T08:13:27;25.40;99.90
18225;DHT22;9237;48.590;8.854;2022-07-29T08:15:56;26.00;99.90
18225;DHT22;9237;48.590;8.854;2022-07-29T08:18:25;26.60;99.90
18225;DHT22;9237;48.590;8.854;2022-07-29T08:20:53;26.40;99.90
18225;DHT22;9237;48.590;8.854;2022-07-29T08:23:20;26.70;99.90
18225;DHT22;9237;48.590;8.854;2022-07-29T08:25:48;26.80;99.90
18225;DHT22;9237;48.590;8.854;2022-07-29T08:28:16;26.20;99.90
18225;DHT22;9237;48.590;8.854;2022-07-29T08:30:44;26.40;99.90
18225;DHT22;9237;48.590;8.854;2022-07-29T08:33:11;26.90;99.90
18225;DHT22;9237;48.590;8.854;2022-07-29T08:35:38;27.00;99.90
18225;DHT22;9237;48.590;8.854;2022-07-29T08:38:05;27.10;99.90
18225;DHT22;9237;48.590;8.854;2022-07-29T08:40:32;28.00;99.90
18225;DHT22;9237;48.590;8.854;2022-07-29T08:43:03;28.50;99.90
18225;DHT22;9237;48.590;8.854;2022-07-29T08:45:39;28.30;99.90
18225;DHT22;9237;48.590;8.854;2022-07-29T08:48:07;28.00;99.90
18225;DHT22;9237;48.590;8.854;2022-07-29T08:50:35;28.10;99.90
18225;DHT22;9237;48.590;8.854;2022-07-29T08:53:02;28.70;99.90
18225;DHT22;9237;48.590;8.854;2022-07-29T08:55:29;28.90;99.90
18225;DHT22;9237;48.590;8.854;2022-07-29T08:57:56;29.60;99.90
18225;DHT22;9237;48.590;8.854;2022-07-29T09:00:25;29.80;99.90
18225;DHT22;9237;48.590;8.854;2022-07-29T09:02:57;29.60;98.90
18225;DHT22;9237;48.590;8.854;2022-07-29T09:05:26;29.90;98.00
18225;DHT22;9237;48.590;8.854;2022-07-29T09:07:53;30.10;97.70
18225;DHT22;9237;48.590;8.854;2022-07-29T09:10:20;30.50;95.80
18225;DHT22;9237;48.590;8.854;2022-07-29T09:12:47;31.20;95.20
18225;DHT22;9237;48.590;8.854;2022-07-29T09:15:15;31.50;92.80
18225;DHT22;9237;48.590;8.854;2022-07-29T09:17:43;30.70;92.10
18225;DHT22;9237;48.590;8.854;2022-07-29T09:20:13;30.00;93.10
18225;DHT22;9237;48.590;8.854;2022-07-29T09:22:40;29.20;94.30
18225;DHT22;9237;48.590;8.854;2022-07-29T09:25:08;29.10;93.60
18225;DHT22;9237;48.590;8.854;2022-07-29T09:27:35;29.10;92.90
18225;DHT22;9237;48.590;8.854;2022-07-29T09:30:04;29.20;93.80
18225;DHT22;9237;48.590;8.854;2022-07-29T09:32:32;28.80;92.00
18225;DHT22;9237;48.590;8.854;2022-07-29T09:35:17;28.20;94.50
18225;DHT22;9237;48.590;8.854;2022-07-29T09:37:44;28.00;93.30
18225;DHT22;9237;48.590;8.854;2022-07-29T09:40:13;28.30;94.50
18225;DHT22;9237;48.590;8.854;2022-07-29T09:42:41;28.30;93.00
18225;DHT22;9237;48.590;8.854;2022-07-29T09:45:09;28.00;93.50
18225;DHT22;9237;48.590;8.854;2022-07-29T09:47:42;28.70;94.90
18225;DHT22;9237;48.590;8.854;2022-07-29T09:50:10;30.10;92.80
18225;DHT22;9237;48.590;8.854;2022-07-29T09:52:47;31.40;90.60
18225;DHT22;9237;48.590;8.854;2022-07-29T09:55:14;32.00;83.30
18225;DHT22;9237;48.590;8.854;2022-07-29T09:57:41;31.80;81.40
18225;DHT22;9237;48.590;8.854;2022-07-29T10:00:11;31.90;81.70
18225;DHT22;9237;48.590;8.854;2022-07-29T10:02:39;31.50;80.10
18225;DHT22;9237;48.590;8.854;2022-07-29T10:05:17;31.60;79.50
18225;DHT22;9237;48.590;8.854;2022-07-29T10:07:49;32.40;79.00
18225;DHT22;9237;48.590;8.854;2022-07-29T10:10:21;33.30;74.70
18225;DHT22;9237;48.590;8.854;2022-07-29T10:12:50;34.20;70.10
18225;DHT22;9237;48.590;8.854;2022-07-29T10:15:18;33.90;70.50
18225;DHT22;9237;48.590;8.854;2022-07-29T10:17:46;32.90;71.90
18225;DHT22;9237;48.590;8.854;2022-07-29T10:20:13;32.40;74.40
18225;DHT22;9237;48.590;8.854;2022-07-29T10:22:41;31.00;72.90
18225;DHT22;9237;48.590;8.854;2022-07-29T10:25:10;29.80;77.10
18225;DHT22;9237;48.590;8.854;2022-07-29T10:27:37;29.40;79.10
18225;DHT22;9237;48.590;8.854;2022-07-29T10:30:06;28.50;79.50
18225;DHT22;9237;48.590;8.854;2022-07-29T10:32:51;27.80;80.20
18225;DHT22;9237;48.590;8.854;2022-07-29T10:35:34;25.60;83.70
18225;DHT22;9237;48.590;8.854;2022-07-29T10:38:22;24.00;90.10
18225;DHT22;9237;48.590;8.854;2022-07-29T10:41:00;23.70;91.80
18225;DHT22;9237;48.590;8.854;2022-07-29T10:43:48;23.80;91.80
18225;DHT22;9237;48.590;8.854;2022-07-29T10:46:15;23.00;92.20
18225;DHT22;9237;48.590;8.854;2022-07-29T10:49:06;22.60;93.10
18225;DHT22;9237;48.590;8.854;2022-07-29T10:51:57;22.30;98.60
18225;DHT22;9237;48.590;8.854;2022-07-29T10:54:45;21.30;99.90
18225;DHT22;9237;48.590;8.854;2022-07-29T10:57:22;20.80;99.90
18225;DHT22;9237;48.590;8.854;2022-07-29T11:00:30;20.50;99.90
18225;DHT22;9237;48.590;8.854;2022-07-29T11:02:58;20.10;99.90
18225;DHT22;9237;48.590;8.854;2022-07-29T11:05:26;20.10;99.90
18225;DHT22;9237;48.590;8.854;2022-07-29T11:08:24;20.30;99.90
18225;DHT22;9237;48.590;8.854;2022-07-29T11:10:53;20.50;99.90
18225;DHT22;9237;48.590;8.854;2022-07-29T11:13:46;20.70;99.90
18225;DHT22;9237;48.590;8.854;2022-07-29T11:16:14;20.80;99.90
18225;DHT22;9237;48.590;8.854;2022-07-29T11:21:44;20.80;99.90
18225;DHT22;9237;48.590;8.854;2022-07-29T11:24:13;20.90;99.90
18225;DHT22;9237;48.590;8.854;2022-07-29T11:26:40;21.30;99.90
18225;DHT22;9237;48.590;8.854;2022-07-29T11:29:17;21.60;99.90
18225;DHT22;9237;48.590;8.854;2022-07-29T11:31:47;22.00;99.90
18225;DHT22;9237;48.590;8.854;2022-07-29T11:34:22;22.30;99.90
18225;DHT22;9237;48.590;8.854;2022-07-29T11:37:21;22.40;99.90
18225;DHT22;9237;48.590;8.854;2022-07-29T11:40:08;23.80;99.90
18225;DHT22;9237;48.590;8.854;2022-07-29T11:42:48;22.40;99.90
18225;DHT22;9237;48.590;8.854;2022-07-29T11:45:20;22.70;99.90
18225;DHT22;9237;48.590;8.854;2022-07-29T11:47:50;23.10;99.90
18225;DHT22;9237;48.590;8.854;2022-07-29T11:50:26;23.30;99.90
18225;DHT22;9237;48.590;8.854;2022-07-29T11:52:53;23.70;99.90
18225;DHT22;9237;48.590;8.854;2022-07-29T11:55:22;24.90;99.90
18225;DHT22;9237;48.590;8.854;2022-07-29T11:57:52;25.00;99.90
18225;DHT22;9237;48.590;8.854;2022-07-29T12:00:26;24.90;99.90
18225;DHT22;9237;48.590;8.854;2022-07-29T12:02:54;24.90;99.90
18225;DHT22;9237;48.590;8.854;2022-07-29T12:05:29;24.80;99.90
18225;DHT22;9237;48.590;8.854;2022-07-29T12:08:07;24.90;99.90
18225;DHT22;9237;48.590;8.854;2022-07-29T12:10:35;24.90;99.90
18225;DHT22;9237;48.590;8.854;2022-07-29T12:13:02;24.70;99.90
18225;DHT22;9237;48.590;8.854;2022-07-29T12:15:30;24.50;99.90
18225;DHT22;9237;48.590;8.854;2022-07-29T12:17:57;24.20;99.90
18225;DHT22;9237;48.590;8.854;2022-07-29T12:20:25;23.70;99.90
18225;DHT22;9237;48.590;8.854;2022-07-29T12:22:53;23.80;99.90
18225;DHT22;9237;48.590;8.854;2022-07-29T12:25:21;23.70;99.90
18225;DHT22;9237;48.590;8.854;2022-07-29T12:27:57;23.60;99.90
18225;DHT22;9237;48.590;8.854;2022-07-29T12:30:40;23.50;99.90
18225;DHT22;9237;48.590;8.854;2022-07-29T12:33:12;23.40;99.90
18225;DHT22;9237;48.590;8.854;2022-07-29T12:35:39;23.20;99.90
18225;DHT22;9237;48.590;8.854;2022-07-29T12:38:06;22.10;99.90
18225;DHT22;9237;48.590;8.854;2022-07-29T12:40:35;20.80;99.90
18225;DHT22;9237;48.590;8.854;2022-07-29T12:43:10;19.80;99.90
18225;DHT22;9237;48.590;8.854;2022-07-29T12:45:40;19.30;99.90
18225;DHT22;9237;48.590;8.854;2022-07-29T12:48:09;19.00;99.90
18225;DHT22;9237;48.590;8.854;2022-07-29T12:50:51;18.70;99.90
18225;DHT22;9237;48.590;8.854;2022-07-29T12:53:19;18.60;99.90
18225;DHT22;9237;48.590;8.854;2022-07-29T12:55:47;18.50;99.90
18225;DHT22;9237;48.590;8.854;2022-07-29T12:58:27;18.70;99.90
18225;DHT22;9237;48.590;8.854;2022-07-29T13:01:06;18.90;99.90
18225;DHT22;9237;48.590;8.854;2022-07-29T13:03:51;19.20;99.90
18225;DHT22;9237;48.590;8.854;2022-07-29T13:06:38;19.30;99.90
18225;DHT22;9237;48.590;8.854;2022-07-29T13:09:08;19.40;99.90
18225;DHT22;9237;48.590;8.854;2022-07-29T13:11:37;19.50;99.90
18225;DHT22;9237;48.590;8.854;2022-07-29T13:14:06;19.60;99.90
18225;DHT22;9237;48.590;8.854;2022-07-29T13:16:36;19.60;99.90
18225;DHT22;9237;48.590;8.854;2022-07-29T13:19:09;19.70;99.90
18225;DHT22;9237;48.590;8.854;2022-07-29T13:21:37;19.90;99.90
18225;DHT22;9237;48.590;8.854;2022-07-29T13:24:06;20.20;99.90
18225;DHT22;9237;48.590;8.854;2022-07-29T13:26:33;20.50;99.90
18225;DHT22;9237;48.590;8.854;2022-07-29T13:29:00;20.80;99.90
18225;DHT22;9237;48.590;8.854;2022-07-29T13:31:27;20.90;99.90
18225;DHT22;9237;48.590;8.854;2022-07-29T13:33:55;21.20;99.90
18225;DHT22;9237;48.590;8.854;2022-07-29T13:36:22;21.50;99.90
18225;DHT22;9237;48.590;8.854;2022-07-29T13:38:49;21.60;99.90
18225;DHT22;9237;48.590;8.854;2022-07-29T13:41:16;21.80;99.90
18225;DHT22;9237;48.590;8.854;2022-07-29T13:43:43;21.90;99.90
18225;DHT22;9237;48.590;8.854;2022-07-29T13:46:11;22.10;99.90
18225;DHT22;9237;48.590;8.854;2022-07-29T13:48:37;22.40;99.90
18225;DHT22;9237;48.590;8.854;2022-07-29T13:51:06;22.70;99.90
18225;DHT22;9237;48.590;8.854;2022-07-29T13:53:33;22.90;99.90
18225;DHT22;9237;48.590;8.854;2022-07-29T13:56:00;23.00;99.90
18225;DHT22;9237;48.590;8.854;2022-07-29T13:58:26;23.20;99.90
18225;DHT22;9237;48.590;8.854;2022-07-29T14:00:53;23.30;99.90
18225;DHT22;9237;48.590;8.854;2022-07-29T14:03:20;23.50;99.90
18225;DHT22;9237;48.590;8.854;2022-07-29T14:05:47;23.60;99.90
18225;DHT22;9237;48.590;8.854;2022-07-29T14:08:15;23.70;99.90
18225;DHT22;9237;48.590;8.854;2022-07-29T14:10:42;23.70;99.90
18225;DHT22;9237;48.590;8.854;2022-07-29T14:13:09;23.80;99.90
18225;DHT22;9237;48.590;8.854;2022-07-29T14:15:36;24.00;99.90
18225;DHT22;9237;48.590;8.854;2022-07-29T14:18:03;24.00;99.90
18225;DHT22;9237;48.590;8.854;2022-07-29T14:20:31;24.20;99.90
18225;DHT22;9237;48.590;8.854;2022-07-29T14:22:57;24.40;99.90
18225;DHT22;9237;48.590;8.854;2022-07-29T14:25:26;24.50;99.90
18225;DHT22;9237;48.590;8.854;2022-07-29T14:27:53;24.60;99.90
18225;DHT22;9237;48.590;8.854;2022-07-29T14:30:20;24.70;99.90
18225;DHT22;9237;48.590;8.854;2022-07-29T14:32:47;24.90;99.90
18225;DHT22;9237;48.590;8.854;2022-07-29T14:35:14;24.90;99.90
18225;DHT22;9237;48.590;8.854;2022-07-29T14:37:41;24.80;99.90
18225;DHT22;9237;48.590;8.854;2022-07-29T14:40:09;24.80;99.90
18225;DHT22;9237;48.590;8.854;2022-07-29T14:42:38;24.60;99.90
18225;DHT22;9237;48.590;8.854;2022-07-29T14:45:06;24.70;99.90
18225;DHT22;9237;48.590;8.854;2022-07-29T14:47:33;24.70;99.90
18225;DHT22;9237;48.590;8.854;2022-07-29T14:50:00;24.70;99.90
18225;DHT22;9237;48.590;8.854;2022-07-29T14:52:27;24.30;99.90
18225;DHT22;9237;48.590;8.854;2022-07-29T14:54:54;25.10;99.90
18225;DHT22;9237;48.590;8.854;2022-07-29T14:57:21;25.10;99.90
18225;DHT22;9237;48.590;8.854;2022-07-29T14:59:49;25.30;99.90
18225;DHT22;9237;48.590;8.854;2022-07-29T15:02:16;25.30;99.90
18225;DHT22;9237;48.590;8.854;2022-07-29T15:04:43;25.30;99.90
18225;DHT22;9237;48.590;8.854;2022-07-29T15:07:11;25.40;99.90
18225;DHT22;9237;48.590;8.854;2022-07-29T15:09:38;25.40;99.90
18225;DHT22;9237;48.590;8.854;2022-07-29T15:12:05;25.10;99.90
18225;DHT22;9237;48.590;8.854;2022-07-29T15:14:33;25.10;99.90
18225;DHT22;9237;48.590;8.854;2022-07-29T15:17:02;24.80;99.90
18225;DHT22;9237;48.590;8.854;2022-07-29T15:19:29;24.70;99.90
18225;DHT22;9237;48.590;8.854;2022-07-29T15:21:56;24.80;99.90
18225;DHT22;9237;48.590;8.854;2022-07-29T15:24:23;24.80;99.90
18225;DHT22;9237;48.590;8.854;2022-07-29T15:26:50;24.70;99.90
18225;DHT22;9237;48.590;8.854;2022-07-29T15:29:17;24.80;99.90
18225;DHT22;9237;48.590;8.854;2022-07-29T15:31:44;24.90;99.90
18225;DHT22;9237;48.590;8.854;2022-07-29T15:34:12;24.90;99.90
18225;DHT22;9237;48.590;8.854;2022-07-29T15:36:39;25.10;99.90
18225;DHT22;9237;48.590;8.854;2022-07-29T15:39:07;24.80;99.90
18225;DHT22;9237;48.590;8.854;2022-07-29T15:41:34;24.90;99.90
18225;DHT22;9237;48.590;8.854;2022-07-29T15:44:01;25.20;99.90
18225;DHT22;9237;48.590;8.854;2022-07-29T15:46:28;25.40;99.90
18225;DHT22;9237;48.590;8.854;2022-07-29T15:49:13;25.60;99.90
18225;DHT22;9237;48.590;8.854;2022-07-29T15:51:40;25.80;99.90
18225;DHT22;9237;48.590;8.854;2022-07-29T15:54:07;25.90;99.90
18225;DHT22;9237;48.590;8.854;2022-07-29T15:56:34;26.10;99.90
18225;DHT22;9237;48.590;8.854;2022-07-29T15:59:01;26.30;99.90
18225;DHT22;9237;48.590;8.854;2022-07-29T16:01:28;26.40;99.90